createdAt,value
2018-09-19T00:01:14.880Z,80.77
2018-09-19T00:03:43.531Z,80.90
2018-09-19T00:06:12.090Z,81.09
2018-09-19T00:08:40.822Z,80.76
2018-09-19T00:11:09.717Z,80.96
2018-09-19T00:13:38.321Z,81.39
2018-09-19T00:16:06.973Z,81.89
2018-09-19T00:18:35.519Z,81.91
2018-09-19T00:21:04.098Z,81.08
2018-09-19T00:23:32.773Z,81.34
2018-09-19T00:26:01.419Z,81.26
2018-09-19T00:28:29.974Z,81.55
2018-09-19T00:30:58.510Z,82.19
2018-09-19T00:33:27.057Z,82.21
2018-09-19T00:35:55.758Z,82.59
2018-09-19T00:38:24.441Z,83.09
2018-09-19T00:40:53.033Z,82.39
2018-09-19T00:43:21.602Z,82.07
2018-09-19T00:45:50.920Z,82.75
2018-09-19T00:48:19.483Z,82.81
2018-09-19T00:50:48.120Z,83.62
2018-09-19T00:53:16.703Z,83.41
2018-09-19T00:55:45.267Z,83.94
2018-09-19T00:58:13.825Z,83.93
2018-09-19T01:00:42.391Z,84.54
2018-09-19T01:03:12.604Z,84.06
2018-09-19T01:05:41.214Z,83.87
2018-09-19T01:08:09.806Z,84.78
2018-09-19T01:10:38.367Z,84.71
2018-09-19T01:13:07.605Z,84.87
2018-09-19T01:15:36.257Z,85.32
2018-09-19T01:18:04.901Z,85.67
2018-09-19T01:20:33.582Z,86.20
2018-09-19T01:23:02.256Z,85.87
2018-09-19T01:25:30.941Z,85.70
2018-09-19T01:27:59.558Z,86.71
2018-09-19T01:30:28.164Z,86.23
2018-09-19T01:32:56.772Z,85.64
2018-09-19T01:35:25.472Z,86.06
2018-09-19T01:37:54.022Z,85.23
2018-09-19T01:40:22.633Z,85.06
2018-09-19T01:42:51.303Z,84.98
2018-09-19T01:45:19.858Z,85.66
2018-09-19T01:47:48.459Z,87.34
2018-09-19T01:50:17.160Z,86.14
2018-09-19T01:52:45.797Z,86.18
2018-09-19T01:55:14.421Z,86.01
2018-09-19T01:57:43.175Z,85.92
2018-09-19T02:00:11.723Z,85.96
2018-09-19T02:02:40.275Z,86.24
2018-09-19T02:05:08.923Z,86.95
2018-09-19T02:07:37.673Z,87.44
2018-09-19T02:10:06.388Z,87.46
2018-09-19T02:12:35.047Z,87.20
2018-09-19T02:15:03.646Z,86.80
2018-09-19T02:17:32.296Z,86.33
2018-09-19T02:20:00.896Z,86.74
2018-09-19T02:22:29.495Z,86.67
2018-09-19T02:24:58.059Z,86.66
2018-09-19T02:27:26.677Z,86.42
2018-09-19T02:29:55.270Z,86.73
2018-09-19T02:32:23.977Z,86.94
2018-09-19T02:34:52.675Z,87.66
2018-09-19T02:37:21.336Z,88.23
2018-09-19T02:39:50.027Z,89.14
2018-09-19T02:42:18.677Z,89.07
2018-09-19T02:44:47.296Z,88.91
2018-09-19T02:47:15.959Z,89.07
2018-09-19T02:49:44.517Z,88.68
2018-09-19T02:52:13.101Z,89.52
2018-09-19T02:54:49.226Z,89.85
2018-09-19T02:57:17.790Z,89.78
2018-09-19T02:59:46.446Z,89.46
2018-09-19T03:02:15.104Z,89.65
2018-09-19T03:07:12.417Z,89.14
2018-09-19T03:09:41.178Z,89.23
2018-09-19T03:12:09.831Z,89.00
2018-09-19T03:14:38.405Z,89.31
2018-09-19T03:17:07.063Z,89.40
2018-09-19T03:19:35.707Z,89.22
2018-09-19T03:22:04.413Z,89.39
2018-09-19T03:24:33.021Z,89.31
2018-09-19T03:27:01.719Z,89.85
2018-09-19T03:29:30.353Z,90.06
2018-09-19T03:31:58.978Z,89.91
2018-09-19T03:34:27.665Z,89.80
2018-09-19T03:36:56.316Z,89.24
2018-09-19T03:39:24.916Z,89.31
2018-09-19T03:41:53.595Z,89.85
2018-09-19T03:44:22.150Z,90.43
2018-09-19T03:46:50.706Z,90.06
2018-09-19T03:49:19.251Z,89.83
2018-09-19T03:51:47.811Z,90.17
2018-09-19T03:54:16.510Z,89.74
2018-09-19T03:56:45.183Z,90.45
2018-09-19T03:59:13.881Z,90.56
2018-09-19T04:01:42.443Z,90.57
2018-09-19T04:04:11.045Z,90.03
2018-09-19T04:06:39.952Z,89.89
2018-09-19T04:09:11.503Z,89.74
2018-09-19T04:11:40.320Z,90.37
2018-09-19T04:14:09.784Z,90.89
2018-09-19T04:16:38.508Z,90.21
2018-09-19T04:19:07.173Z,90.50
2018-09-19T04:21:35.751Z,90.89
2018-09-19T04:24:04.337Z,90.98
2018-09-19T04:26:32.923Z,90.93
2018-09-19T04:29:25.464Z,90.94
2018-09-19T04:31:54.686Z,90.84
2018-09-19T04:34:23.283Z,90.47
2018-09-19T04:36:51.947Z,90.77
2018-09-19T04:39:20.535Z,91.30
2018-09-19T04:41:57.202Z,90.76
2018-09-19T04:44:25.798Z,90.87
2018-09-19T04:46:54.370Z,90.61
2018-09-19T04:49:26.408Z,90.31
2018-09-19T04:51:54.986Z,90.93
2018-09-19T04:54:23.577Z,91.07
2018-09-19T04:56:52.246Z,91.03
2018-09-19T04:59:20.881Z,90.66
2018-09-19T05:02:05.945Z,90.69
2018-09-19T05:04:34.617Z,90.79
2018-09-19T05:07:03.351Z,90.46
2018-09-19T05:09:31.929Z,90.85
2018-09-19T05:12:00.494Z,90.64
2018-09-19T05:14:29.061Z,90.84
2018-09-19T05:16:57.597Z,91.01
2018-09-19T05:19:26.278Z,90.58
2018-09-19T05:21:54.950Z,91.17
2018-09-19T05:24:23.586Z,90.66
2018-09-19T05:26:52.252Z,90.75
2018-09-19T05:29:20.996Z,90.35
2018-09-19T05:31:49.658Z,90.31
2018-09-19T05:34:18.334Z,90.35
2018-09-19T05:36:46.929Z,90.21
2018-09-19T05:39:15.517Z,90.45
2018-09-19T05:41:44.190Z,90.42
2018-09-19T05:44:12.844Z,89.68
2018-09-19T05:46:42.253Z,89.75
2018-09-19T05:49:13.027Z,89.38
2018-09-19T05:51:41.625Z,89.87
2018-09-19T05:54:10.293Z,89.65
2018-09-19T05:56:38.938Z,89.28
2018-09-19T05:59:07.557Z,89.50
2018-09-19T06:01:36.208Z,89.09
2018-09-19T06:04:04.788Z,89.10
2018-09-19T06:06:33.886Z,89.15
2018-09-19T06:09:02.568Z,89.02
2018-09-19T06:11:31.345Z,88.76
2018-09-19T06:13:59.957Z,88.94
2018-09-19T06:16:28.793Z,88.57
2018-09-19T06:18:57.352Z,88.61
2018-09-19T06:21:25.926Z,88.37
2018-09-19T06:23:54.497Z,88.07
2018-09-19T06:26:23.133Z,87.70
2018-09-19T06:28:51.809Z,87.71
2018-09-19T06:31:20.406Z,87.56
2018-09-19T06:33:49.064Z,87.07
2018-09-19T06:36:18.469Z,87.37
2018-09-19T06:38:47.179Z,86.87
2018-09-19T06:41:15.773Z,86.85
2018-09-19T06:43:44.321Z,87.13
2018-09-19T06:46:13.745Z,86.33
2018-09-19T06:48:42.314Z,86.28
2018-09-19T06:51:10.860Z,86.05
2018-09-19T06:53:39.526Z,85.82
2018-09-19T06:56:15.425Z,85.92
2018-09-19T06:58:44.086Z,85.40
2018-09-19T07:01:12.737Z,85.62
2018-09-19T07:03:41.400Z,84.91
2018-09-19T07:06:09.965Z,84.52
2018-09-19T07:08:38.711Z,84.22
2018-09-19T07:11:07.293Z,84.08
2018-09-19T07:13:35.853Z,84.29
2018-09-19T07:16:04.456Z,83.57
2018-09-19T07:18:33.027Z,83.07
2018-09-19T07:21:01.601Z,83.33
2018-09-19T07:23:30.184Z,82.66
2018-09-19T07:25:58.796Z,82.78
2018-09-19T07:28:27.454Z,82.76
2018-09-19T07:30:56.090Z,82.38
2018-09-19T07:33:24.787Z,82.20
2018-09-19T07:35:53.433Z,81.79
2018-09-19T07:38:22.218Z,81.47
2018-09-19T07:40:50.792Z,81.65
2018-09-19T07:43:19.380Z,81.47
2018-09-19T07:45:47.931Z,80.64
2018-09-19T07:48:16.532Z,80.73
2018-09-19T07:50:45.135Z,79.93
2018-09-19T07:53:13.939Z,79.36
2018-09-19T07:55:42.510Z,79.80
2018-09-19T07:58:11.204Z,79.40
2018-09-19T08:00:40.011Z,79.33
2018-09-19T08:03:08.500Z,78.58
2018-09-19T08:05:37.100Z,77.93
2018-09-19T08:08:05.657Z,78.05
2018-09-19T08:10:34.213Z,76.23
2018-09-19T08:13:02.808Z,75.58
2018-09-19T08:15:31.421Z,74.31
2018-09-19T08:18:00.045Z,73.16
2018-09-19T08:20:28.745Z,72.31
2018-09-19T08:22:57.328Z,72.43
2018-09-19T08:25:25.908Z,72.26
2018-09-19T08:27:54.606Z,72.07
2018-09-19T08:30:23.520Z,71.28
2018-09-19T08:32:52.208Z,71.08
2018-09-19T08:35:20.811Z,70.88
2018-09-19T08:37:49.578Z,70.27
2018-09-19T08:40:18.240Z,70.22
2018-09-19T08:42:46.944Z,69.67
2018-09-19T08:45:15.511Z,69.17
2018-09-19T08:47:44.141Z,69.34
2018-09-19T08:50:12.851Z,69.12
2018-09-19T08:52:41.452Z,68.09
2018-09-19T08:55:10.085Z,68.36
2018-09-19T08:57:38.632Z,68.05
2018-09-19T09:00:09.724Z,67.71
2018-09-19T09:02:38.573Z,67.59
2018-09-19T09:05:07.710Z,65.78
2018-09-19T09:07:36.359Z,64.92
2018-09-19T09:10:05.487Z,64.86
2018-09-19T09:19:16.336Z,63.47
2018-09-19T09:21:44.901Z,62.73
2018-09-19T09:24:13.482Z,62.79
2018-09-19T09:26:42.193Z,62.98
2018-09-19T09:29:10.760Z,62.72
2018-09-19T09:31:39.410Z,62.43
2018-09-19T09:34:08.107Z,62.47
2018-09-19T09:36:36.876Z,62.24
2018-09-19T09:39:06.813Z,62.21
2018-09-19T09:41:35.429Z,61.68
2018-09-19T09:44:04.149Z,62.06
2018-09-19T09:46:32.823Z,60.99
2018-09-19T09:49:01.543Z,60.85
2018-09-19T09:51:30.137Z,59.86
2018-09-19T09:53:58.825Z,61.01
2018-09-19T09:56:27.632Z,59.83
2018-09-19T09:58:56.237Z,59.24
2018-09-19T10:01:24.965Z,59.37
2018-09-19T10:03:53.563Z,59.42
2018-09-19T10:06:22.333Z,58.73
2018-09-19T10:08:51.209Z,58.34
2018-09-19T10:11:19.977Z,58.32
2018-09-19T10:13:48.669Z,58.08
2018-09-19T10:16:17.326Z,57.81
2018-09-19T10:18:46.513Z,56.96
2018-09-19T10:21:15.799Z,56.33
2018-09-19T10:23:44.536Z,56.43
2018-09-19T10:26:13.200Z,55.82
2018-09-19T10:28:41.838Z,55.47
2018-09-19T10:31:10.580Z,55.39
2018-09-19T10:33:39.123Z,54.89
2018-09-19T10:36:07.836Z,53.62
2018-09-19T10:38:36.556Z,53.76
2018-09-19T10:41:05.150Z,53.49
2018-09-19T10:43:33.730Z,53.29
2018-09-19T10:46:02.388Z,52.98
2018-09-19T10:48:30.986Z,53.84
2018-09-19T10:50:59.668Z,54.16
2018-09-19T10:53:28.249Z,54.15
2018-09-19T10:55:56.958Z,54.15
2018-09-19T10:58:25.612Z,54.07
2018-09-19T11:00:54.195Z,54.07
2018-09-19T11:03:22.863Z,54.80
2018-09-19T11:05:57.162Z,53.97
2018-09-19T11:08:25.721Z,53.03
2018-09-19T11:10:54.282Z,52.13
2018-09-19T11:13:22.874Z,52.15
2018-09-19T11:15:51.549Z,51.43
2018-09-19T11:18:20.107Z,50.72
2018-09-19T11:20:48.832Z,51.35
2018-09-19T11:23:17.540Z,51.59
2018-09-19T11:25:46.245Z,52.46
2018-09-19T11:28:14.903Z,51.85
2018-09-19T11:30:43.527Z,51.58
2018-09-19T11:33:12.185Z,51.36
2018-09-19T11:35:40.930Z,50.75
2018-09-19T11:38:09.651Z,49.82
2018-09-19T11:40:38.319Z,49.81
2018-09-19T11:43:07.295Z,48.86
2018-09-19T11:45:36.186Z,48.99
2018-09-19T11:48:05.606Z,48.96
2018-09-19T11:50:34.184Z,48.98
2018-09-19T11:53:02.870Z,48.76
2018-09-19T11:55:31.688Z,49.13
2018-09-19T11:58:00.299Z,49.31
2018-09-19T12:00:28.884Z,48.56
2018-09-19T12:02:57.481Z,47.88
2018-09-19T12:05:52.951Z,47.96
2018-09-19T12:08:21.889Z,47.37
2018-09-19T12:10:50.581Z,46.97
2018-09-19T12:13:19.206Z,46.79
2018-09-19T12:15:47.853Z,45.61
2018-09-19T12:18:16.762Z,46.79
2018-09-19T12:20:45.437Z,46.34
2018-09-19T12:23:14.040Z,45.95
2018-09-19T12:25:42.725Z,45.71
2018-09-19T12:28:11.405Z,45.63
2018-09-19T12:30:40.221Z,44.58
2018-09-19T12:33:08.946Z,44.65
2018-09-19T12:35:37.734Z,44.93
2018-09-19T12:38:06.317Z,44.27
2018-09-19T12:40:35.057Z,43.68
2018-09-19T12:43:03.701Z,43.81
2018-09-19T12:45:32.347Z,44.42
2018-09-19T12:48:01.011Z,45.76
2018-09-19T12:50:29.714Z,45.45
2018-09-19T12:52:58.284Z,44.56
2018-09-19T12:55:26.898Z,43.48
2018-09-19T12:57:55.495Z,43.08
2018-09-19T13:00:24.357Z,42.24
2018-09-19T13:02:53.035Z,41.77
2018-09-19T13:05:21.824Z,40.97
2018-09-19T13:07:50.711Z,41.82
2018-09-19T13:10:19.361Z,41.65
2018-09-19T13:12:48.164Z,41.73
2018-09-19T13:15:16.818Z,40.86
2018-09-19T13:17:45.502Z,39.48
2018-09-19T13:20:14.914Z,39.42
2018-09-19T13:22:43.538Z,38.67
2018-09-19T13:25:12.250Z,38.36
2018-09-19T13:27:40.862Z,38.33
2018-09-19T13:30:09.558Z,38.02
2018-09-19T13:32:38.795Z,37.73
2018-09-19T13:35:08.134Z,38.04
2018-09-19T13:37:36.733Z,37.90
2018-09-19T13:40:05.903Z,37.60
2018-09-19T13:42:34.513Z,38.12
2018-09-19T13:45:03.188Z,38.03
2018-09-19T13:47:31.844Z,37.73
2018-09-19T13:51:07.089Z,38.11
2018-09-19T13:53:35.852Z,37.70
2018-09-19T13:56:04.604Z,37.97
2018-09-19T13:58:33.516Z,37.21
2018-09-19T14:01:02.245Z,37.62
2018-09-19T14:03:31.072Z,37.41
2018-09-19T14:05:59.728Z,37.82
2018-09-19T14:08:30.465Z,38.32
2018-09-19T14:11:01.392Z,38.73
2018-09-19T14:13:30.638Z,38.44
2018-09-19T14:15:59.274Z,37.84
2018-09-19T14:18:28.009Z,38.42
2018-09-19T14:20:57.377Z,38.51
2018-09-19T14:23:25.963Z,38.85
2018-09-19T14:25:54.529Z,38.51
2018-09-19T14:28:23.264Z,38.61
2018-09-19T14:30:51.915Z,38.87
2018-09-19T14:33:20.879Z,38.37
2018-09-19T14:35:58.462Z,38.81
2018-09-19T14:38:27.102Z,38.72
2018-09-19T14:40:55.953Z,38.46
2018-09-19T14:43:26.043Z,38.72
2018-09-19T14:45:54.909Z,38.46
2018-09-19T14:48:23.817Z,39.23
2018-09-19T14:50:52.529Z,38.76
2018-09-19T14:53:23.993Z,38.68
2018-09-19T14:55:52.932Z,38.29
2018-09-19T14:58:21.927Z,37.85
2018-09-19T15:00:50.937Z,37.66
2018-09-19T15:03:20.462Z,37.59
2018-09-19T15:05:49.445Z,37.76
2018-09-19T15:08:18.456Z,39.04
2018-09-19T15:10:47.310Z,39.18
2018-09-19T15:13:16.190Z,39.09
2018-09-19T15:15:44.976Z,38.83
2018-09-19T15:18:13.720Z,38.69
2018-09-19T15:20:42.541Z,39.52
2018-09-19T15:23:11.434Z,39.31
2018-09-19T15:25:40.140Z,39.00
2018-09-19T15:28:08.813Z,38.48
2018-09-19T15:30:38.995Z,38.80
2018-09-19T15:33:07.587Z,38.30
2018-09-19T15:35:36.254Z,38.50
2018-09-19T15:38:04.953Z,37.53
2018-09-19T15:40:33.622Z,37.33
2018-09-19T15:43:04.498Z,37.60
2018-09-19T15:45:33.204Z,37.63
2018-09-19T15:48:01.975Z,38.07
2018-09-19T15:50:30.737Z,38.51
2018-09-19T15:52:59.371Z,37.99
2018-09-19T15:55:28.004Z,38.41
2018-09-19T15:57:56.729Z,37.78
2018-09-19T16:00:26.169Z,38.02
2018-09-19T16:02:55.000Z,38.83
2018-09-19T16:05:23.661Z,39.27
2018-09-19T16:07:52.228Z,39.27
2018-09-19T16:10:20.849Z,39.26
2018-09-19T16:12:49.553Z,39.31
2018-09-19T16:15:18.237Z,39.36
2018-09-19T16:17:48.165Z,38.92
2018-09-19T16:20:16.843Z,39.11
2018-09-19T16:22:45.427Z,39.28
2018-09-19T16:25:14.025Z,38.88
2018-09-19T16:27:42.624Z,39.60
2018-09-19T16:30:11.360Z,39.00
2018-09-19T16:33:15.343Z,39.63
2018-09-19T16:35:43.979Z,39.59
2018-09-19T16:38:12.665Z,39.30
2018-09-19T16:40:41.347Z,39.56
2018-09-19T16:43:18.305Z,39.42
2018-09-19T16:45:47.018Z,39.80
2018-09-19T16:48:15.683Z,40.25
2018-09-19T16:50:44.263Z,40.64
2018-09-19T16:53:14.037Z,40.94
2018-09-19T16:55:42.708Z,40.83
2018-09-19T16:58:11.384Z,41.49
2018-09-19T17:00:40.748Z,42.17
2018-09-19T17:03:09.362Z,42.65
2018-09-19T17:05:38.129Z,43.09
2018-09-19T17:08:07.449Z,43.02
2018-09-19T17:10:37.003Z,43.00
2018-09-19T17:13:05.665Z,43.03
2018-09-19T17:15:34.318Z,43.55
2018-09-19T17:18:03.036Z,43.38
2018-09-19T17:20:31.724Z,44.00
2018-09-19T17:26:51.901Z,44.47
2018-09-19T17:29:20.579Z,44.35
2018-09-19T17:31:49.501Z,44.53
2018-09-19T17:34:18.252Z,45.17
2018-09-19T17:37:25.456Z,45.95
2018-09-19T17:39:54.752Z,46.40
2018-09-19T17:42:23.329Z,46.83
2018-09-19T17:44:51.941Z,46.55
2018-09-19T17:47:20.781Z,47.55
2018-09-19T17:49:49.387Z,47.36
2018-09-19T17:52:18.085Z,48.15
2018-09-19T17:54:46.764Z,48.22
2018-09-19T17:57:15.638Z,48.46
2018-09-19T17:59:47.654Z,49.14
2018-09-19T18:02:16.328Z,48.85
2018-09-19T18:04:45.147Z,49.44
2018-09-19T18:07:13.930Z,49.46
2018-09-19T18:09:42.576Z,49.63
2018-09-19T18:12:11.350Z,50.32
2018-09-19T18:14:40.114Z,50.32
2018-09-19T18:17:08.841Z,50.61
2018-09-19T18:19:37.671Z,51.27
2018-09-19T18:22:06.520Z,51.34
2018-09-19T18:24:36.460Z,51.89
2018-09-19T18:27:05.146Z,51.87
2018-09-19T18:29:34.292Z,52.53
2018-09-19T18:32:03.496Z,52.59
2018-09-19T18:37:53.867Z,53.32
2018-09-19T18:40:22.642Z,53.81
2018-09-19T18:46:12.160Z,54.34
2018-09-19T18:48:41.981Z,55.50
2018-09-19T18:51:12.708Z,56.14
2018-09-19T18:53:41.467Z,56.98
2018-09-19T18:56:10.388Z,58.10
2018-09-19T18:58:39.362Z,58.43
2018-09-19T19:01:08.564Z,58.60
2018-09-19T19:03:37.582Z,59.79
2018-09-19T19:06:06.328Z,60.07
2018-09-19T19:08:35.192Z,61.08
2018-09-19T19:11:04.302Z,61.07
2018-09-19T19:13:49.704Z,61.54
2018-09-19T19:16:18.789Z,61.96
2018-09-19T19:18:47.637Z,61.92
2018-09-19T19:21:16.427Z,62.88
2018-09-19T19:23:45.258Z,62.95
2018-09-19T19:26:14.048Z,63.02
2018-09-19T19:28:43.014Z,61.99
2018-09-19T19:31:11.892Z,61.64
2018-09-19T19:33:42.398Z,62.09
2018-09-19T19:36:11.215Z,62.87
2018-09-19T19:38:39.841Z,63.01
2018-09-19T19:41:09.807Z,63.00
2018-09-19T19:43:42.274Z,63.51
2018-09-19T19:46:11.011Z,63.92
2018-09-19T19:48:40.053Z,64.84
2018-09-19T19:51:09.285Z,65.49
2018-09-19T19:53:38.353Z,65.93
2018-09-19T19:56:07.523Z,65.74
2018-09-19T19:58:36.229Z,66.75
2018-09-19T20:01:05.431Z,67.15
2018-09-19T20:03:54.932Z,66.81
2018-09-19T20:06:23.686Z,66.51
2018-09-19T20:08:52.541Z,67.26
2018-09-19T20:11:21.479Z,67.04
2018-09-19T20:13:50.361Z,66.97
2018-09-19T20:16:19.402Z,66.87
2018-09-19T20:18:56.643Z,66.47
2018-09-19T20:21:25.263Z,66.96
2018-09-19T20:23:54.079Z,66.87
2018-09-19T20:26:23.128Z,66.88
2018-09-19T20:28:51.993Z,66.63
2018-09-19T20:31:20.772Z,67.03
2018-09-19T20:33:49.451Z,67.27
2018-09-19T20:36:46.135Z,67.33
2018-09-19T20:39:14.870Z,67.53
2018-09-19T20:41:43.580Z,68.10
2018-09-19T20:44:12.528Z,68.75
2018-09-19T20:47:07.281Z,69.39
2018-09-19T20:49:36.381Z,69.49
2018-09-19T20:55:58.453Z,70.49
2018-09-19T20:58:27.747Z,70.14
2018-09-19T21:00:56.547Z,70.53
2018-09-19T21:03:25.216Z,70.66
2018-09-19T21:05:54.084Z,70.82
2018-09-19T21:12:06.723Z,71.70
2018-09-19T21:14:35.432Z,72.17
2018-09-19T21:17:04.052Z,72.41
2018-09-19T21:19:33.289Z,72.43
2018-09-19T21:25:30.560Z,73.66
2018-09-19T21:27:59.230Z,73.42
2018-09-19T21:30:28.016Z,74.25
2018-09-19T21:32:56.746Z,74.19
2018-09-19T21:35:25.397Z,74.00
2018-09-19T21:37:54.036Z,74.68
2018-09-19T21:40:23.205Z,74.73
2018-09-19T21:42:59.600Z,74.82
2018-09-19T21:45:28.261Z,75.61
2018-09-19T21:47:56.957Z,75.26
2018-09-19T21:50:25.610Z,75.17
2018-09-19T21:52:54.183Z,75.80
2018-09-19T21:55:22.878Z,75.54
2018-09-19T21:57:56.117Z,75.49
2018-09-19T22:00:24.731Z,75.13
2018-09-19T22:02:53.324Z,75.16
2018-09-19T22:05:23.007Z,75.75
2018-09-19T22:07:51.662Z,75.91
2018-09-19T22:10:20.448Z,76.13
2018-09-19T22:12:49.121Z,75.48
2018-09-19T22:15:17.781Z,76.05
2018-09-19T22:17:46.612Z,75.39
2018-09-19T22:20:15.521Z,75.88
2018-09-19T22:22:44.156Z,76.21
2018-09-19T22:25:12.793Z,76.10
2018-09-19T22:27:41.786Z,76.01
2018-09-19T22:30:10.400Z,76.21
2018-09-19T22:32:40.029Z,76.36
2018-09-19T22:35:10.078Z,76.44
2018-09-19T22:37:38.736Z,75.88
2018-09-19T22:40:07.353Z,75.45
2018-09-19T22:42:36.041Z,75.55
2018-09-19T22:45:04.731Z,75.49
2018-09-19T22:47:33.375Z,75.86
2018-09-19T22:50:01.952Z,75.89
2018-09-19T22:52:30.720Z,76.02
2018-09-19T22:54:59.638Z,75.51
2018-09-19T22:57:28.319Z,75.63
2018-09-19T22:59:57.865Z,75.40
2018-09-19T23:02:26.811Z,75.83
2018-09-19T23:04:55.969Z,75.99
2018-09-19T23:07:24.662Z,75.55
2018-09-19T23:09:53.321Z,75.97
2018-09-19T23:12:21.881Z,75.72
2018-09-19T23:14:50.476Z,76.46
2018-09-19T23:17:19.172Z,76.39
2018-09-19T23:19:47.762Z,77.36
2018-09-19T23:22:16.307Z,77.62
2018-09-19T23:24:44.929Z,77.51
2018-09-19T23:27:14.636Z,77.47
2018-09-19T23:29:43.191Z,77.71
2018-09-19T23:32:11.894Z,77.49
2018-09-19T23:34:40.449Z,77.68
2018-09-19T23:37:09.069Z,78.07
2018-09-19T23:39:37.634Z,78.05
2018-09-19T23:42:06.186Z,77.51
2018-09-19T23:44:34.720Z,77.32
2018-09-19T23:47:03.412Z,77.72
2018-09-19T23:49:32.071Z,77.30
2018-09-19T23:52:00.679Z,77.60
2018-09-19T23:54:29.222Z,77.35
2018-09-19T23:56:57.761Z,77.13
2018-09-19T23:59:26.315Z,77.54
